Tiempo atmosférico en la estación meteorológica de Cabrales, Asturias (458 m.)

Fecha
DESCASC
Temp. máxima en grados centígrados (hora)
DESCASC
Temp. mínima en grados centígrados (hora)
DESCASC
Temp. media en grados centígrados
DESCASC
Racha de viento máxima en m/sg (hora)
DESCASC
Velocidad máxima media en intervalos de 10 minutos(hora)
DESCASC
Precipitaciones diarias en mm
DESCASC
Precipitaciones de 00:00 a 06:00 en mm
DESCASC
Precipitaciones de 06:00 a 12:00 en mm
DESCASC
Precipitaciones de 12:00 a 18:00 en mm
DESCASC
Precipitaciones de 18:00 a 24:00 en mm
DESCASC
22-10-2017 16.4 (15:20) 8.7 (23:50) 12.5 7.78 (01:20) 5.83 (00:10) 0 0 0 0 0
21-10-2017 19.4 (00:10) 10.4 (22:50) 14.9 12.22 (15:40) 8.33 (14:50) 1.6 1.4 0.2 0 0
20-10-2017 22.5 (15:40) 12.9 (09:00) 17.7 11.94 (22:30) 5.28 (18:20) 0.2 0.2 0 0 0
19-10-2017 18.2 (15:50) 7.3 (00:00) 12.8 8.06 (21:00) 5.83 (21:00) 0 0 0 0 0
18-10-2017 15.4 (08:10) 9.7 (00:00) 12.5 15 (06:40) 7.78 (16:50) 3.4 0 0.8 2 0.6
17-10-2017 20.7 (13:20) 12.1 (00:00) 16.4 15 (13:10) 7.78 (13:10) 1.6 0 0 1.6 0
16-10-2017 25.6 (05:40) 13.6 (00:00) 19.6 15.83 (09:00) 8.89 (05:40) 0 0 0 0 0
15-10-2017 29.7 (13:40) 16.9 (00:00) 23.3 18.33 (15:20) 10.83 (15:20) 0 0 0 0 0
14-10-2017 26 (16:50) 11.9 (00:00) 18.9 4.72 (16:10) 3.33 (15:30) 0 0 0 0 0
13-10-2017 22.4 (13:10) 13.4 (00:00) 17.9 6.11 (15:40) 4.72 (15:50) 0 0 0 0 0
12-10-2017 24.1 (16:30) 9.9 (00:00) 17 4.44 (16:00) 3.61 (20:50) 0 0 0 0 0
11-10-2017 22.6 (14:40) 13.5 (00:00) 18.1 7.78 (17:40) 5.56 (17:40) 0 0 0 0 0
10-10-2017 23.5 (16:50) 7.6 (00:00) 15.5 6.67 (19:00) 5.28 (19:00) 0.2 0 0.2 0 0
09-10-2017 22.6 (16:10) 8.4 (00:00) 15.5 5.83 (19:30) 4.44 (19:30) 0.2 0 0.2 0 0
08-10-2017 22.7 (16:10) 8.3 (00:00) 15.5 5.56 (19:10) 4.44 (19:20) 0.2 0 0.2 0 0
07-10-2017 21.7 (16:10) 8 (00:00) 14.9 5.56 (19:40) 4.44 (19:40) 0 0 0 0 0
06-10-2017 20.3 (14:30) 12.5 (00:00) 16.4 8.89 (19:50) 5.83 (19:50) 0 0 0 0 0
05-10-2017 20.5 (15:40) 15.1 (00:00) 17.8 5.83 (17:40) 4.17 (17:40) 0 0 0 0 0
04-10-2017 22.3 (17:20) 14.1 (00:00) 18.2 6.39 (00:40) 4.72 (15:30) 0 0 0 0 0
03-10-2017 21.7 (14:20) 16.2 (00:00) 19 8.06 (18:10) 4.44 (18:10) 0.2 0 0 0.2 0
02-10-2017 22.4 (14:10) 16.3 (00:00) 19.3 5 (18:10) 3.33 (18:10) 2.4 0.2 2.2 0 0
01-10-2017 20.9 (15:10) 12.5 (00:00) 16.7 8.06 (08:30) 5.28 (13:50) 0.2 0 0 0 0.2
30-09-2017 17.1 (14:00) 12.5 (00:00) 14.8 7.22 (15:40) 5.28 (16:20) 1.4 0.2 1 0 0.2
29-09-2017 22.7 (16:00) 14.1 (00:00) 18.4 7.78 (14:40) 5.83 (14:40) 2.2 0 0 0 2.2
28-09-2017 26.3 (16:20) 13.2 (00:00) 19.7 4.17 (19:20) 3.61 (19:10) 0 0 0 0 0
27-09-2017 25.5 (15:50) 12.1 (00:00) 18.8 7.5 (18:00) 5 (16:50) 0 0 0 0 0
26-09-2017 22.7 (16:10) 10 (00:00) 16.4 5.56 (19:00) 3.89 (19:00) 0 0 0 0 0
25-09-2017 19.2 (15:10) 12.9 (00:00) 16.1 9.17 (16:10) 6.39 (12:30) 0.2 0.2 0 0 0
24-09-2017 25.4 (15:50) 11.6 (00:00) 18.5 9.44 (23:50) 6.67 (21:00) 1 0 0 0 1
23-09-2017 27.2 (15:00) 11 (00:00) 19.1 11.39 (16:30) 8.33 (16:30) 0 0 0 0 0

Gráficas

Temp. máximas Temp. mínimas Temp. medias Precipitaciones Rachas de viento máximas Velocidades máximas media en intervalos de 10 minutos

Datos horarios

Fecha y hora oficial Temperatura (ºC) Velocidad del viento (km/h) Dirección del viento Racha (km/h) Dirección de racha Precipitación (mm) Presión (hPa) Tendencia (hPa) Humedad (%)
2017-10-22 23:00:00 9.4 0 Calma 6 Oeste 0 -- -- 92
2017-10-22 22:00:00 9.9 2 Nordeste 9 Sudeste 0 -- -- 90
2017-10-22 21:00:00 10.2 7 Sudeste 12 Este 0 -- -- 88
2017-10-22 20:00:00 11.4 5 Este 12 Sudoeste 0 -- -- 82
2017-10-22 19:00:00 12.5 8 Oeste 19 Oeste 0 -- -- 79
2017-10-22 18:00:00 13.4 14 Oeste 20 Oeste 0 -- -- 74
2017-10-22 17:00:00 14.6 9 Noroeste 19 Noroeste 0 -- -- 68
2017-10-22 16:00:00 15.6 12 Oeste 23 Oeste 0 -- -- 60
2017-10-22 15:00:00 15.5 14 Oeste 26 Noroeste 0 -- -- 58
2017-10-22 14:00:00 14.8 13 Oeste 26 Oeste 0 -- -- 63
2017-10-22 13:00:00 13.2 14 Noroeste 22 Noroeste 0 -- -- 65
2017-10-22 12:00:00 12.7 9 Noroeste 14 Noroeste 0 -- -- 70
2017-10-22 11:00:00 12 3 Sudoeste 14 Este 0 -- -- 75
2017-10-22 10:00:00 10.1 6 Este 21 Norte 0 -- -- 81
2017-10-22 09:00:00 9.9 12 Noroeste 23 Norte 0 -- -- 80
2017-10-22 08:00:00 10.1 15 Noroeste 23 Norte 0 -- -- 78
2017-10-22 07:00:00 9.9 8 Noroeste 19 Norte 0 -- -- 82
2017-10-22 06:00:00 9.9 13 Noroeste 20 Noroeste 0 -- -- 82
2017-10-22 05:00:00 9.8 6 Oeste 14 Noroeste 0 -- -- 85
2017-10-22 04:00:00 9.7 6 Norte 20 Noroeste 0 -- -- 86
2017-10-22 03:00:00 10.2 12 Noroeste 27 Noroeste 0 -- -- 85
2017-10-22 02:00:00 10.4 13 Oeste 28 Noroeste 0 -- -- 84
2017-10-22 01:00:00 10.5 13 Oeste 26 Oeste 0 -- -- 85
2017-10-22 00:00:00 10.9 24 Oeste 32 Oeste 0 -- -- 82
2017-10-21 23:00:00 10.5 18 Noroeste 25 Noroeste 0 -- -- 84
2017-10-21 22:00:00 11.1 18 Noroeste 27 Oeste 0 -- -- 82
2017-10-21 21:00:00 11.3 15 Oeste 27 Oeste 0 -- -- 84
2017-10-21 20:00:00 12.2 14 Oeste 24 Noroeste 0 -- -- 74
2017-10-21 19:00:00 13 21 Oeste 36 Noroeste 0 -- -- 70
2017-10-21 18:00:00 13.6 15 Norte 38 Norte 0 -- -- 76
2017-10-21 17:00:00 14.9 21 Oeste 41 Noroeste 0 -- -- 64
2017-10-21 16:00:00 15.8 23 Norte 44 Oeste 0 -- -- 64
2017-10-21 15:00:00 16 25 Oeste 43 Oeste 0 -- -- 52
2017-10-21 14:00:00 16.3 25 Noroeste 37 Noroeste 0 -- -- 60
2017-10-21 13:00:00 15.3 24 Noroeste 39 Norte 0 -- -- 61
2017-10-21 12:00:00 15.2 15 Norte 31 Norte 0 -- -- 66
2017-10-21 11:00:00 13 17 Norte 30 Norte 0 -- -- 69
2017-10-21 10:00:00 12 16 Noroeste 25 Norte 0 -- -- 71
2017-10-21 09:00:00 11.6 11 Norte 29 Noroeste 0 -- -- 82
2017-10-21 08:00:00 11.9 18 Noroeste 29 Oeste 0 -- -- 90
2017-10-21 07:00:00 12 12 Noroeste 39 Oeste 0.2 -- -- 99
2017-10-21 06:00:00 12.7 29 Oeste 39 Oeste 1 -- -- 97
2017-10-21 05:00:00 13.9 11 Oeste 14 Oeste 0.4 -- -- 97
2017-10-21 04:00:00 14.2 6 Sudoeste 20 Oeste 0 -- -- 96
2017-10-21 03:00:00 14.1 15 Oeste 30 Oeste 0 -- -- 97
2017-10-21 02:00:00 15.3 21 Oeste 40 Oeste 0 -- -- 92
2017-10-21 01:00:00 19.4 9 Noroeste 14 Noroeste 0 -- -- 57
2017-10-21 00:00:00 19.2 5 Norte 11 Noroeste 0 -- -- 58
2017-10-20 23:00:00 19.4 10 Oeste 43 Sudoeste 0 -- -- 57
2017-10-20 22:00:00 19.6 6 Noroeste 26 Sur 0 -- -- 54
2017-10-20 21:00:00 20 10 Este 38 Oeste 0 -- -- 54
2017-10-20 20:00:00 18.6 8 Sudoeste 35 Sur 0 -- -- 69
2017-10-20 19:00:00 19.2 8 Sudeste 25 Sudeste 0 -- -- 69
2017-10-20 18:00:00 21 17 Sudeste 22 Sudeste 0 -- -- 65
2017-10-20 17:00:00 22.1 12 Sudeste 21 Sudeste 0 -- -- 61
2017-10-20 16:00:00 22.5 10 Sudeste 17 Sudeste 0 -- -- 60
2017-10-20 15:00:00 21.7 5 Sudoeste 12 Sudoeste 0 -- -- 64
2017-10-20 14:00:00 20.5 4 Sudeste 9 Sudeste 0 -- -- 65
2017-10-20 13:00:00 17.4 2 Norte 8 Nordeste 0 -- -- 81
2017-10-20 12:00:00 15.8 4 Este 9 Sudeste 0 -- -- 92
2017-10-20 11:00:00 14.3 7 Sudeste 12 Sudeste 0 -- -- 99
2017-10-20 10:00:00 13.5 0 Calma 9 Nordeste 0 -- -- 100
2017-10-20 09:00:00 12.9 4 Sur 12 Sudeste 0 -- -- 100
2017-10-20 08:00:00 13.2 8 Sudeste 9 Sudeste 0 -- -- 99
2017-10-20 07:00:00 13.3 4 Este 7 Este 0 -- -- 99
2017-10-20 06:00:00 13.5 3 Sudeste 6 Sudeste 0 -- -- 97
2017-10-20 05:00:00 13.4 0 Calma 4 Este 0 -- -- 97
2017-10-20 04:00:00 13.5 0 Calma 6 Sudeste 0 -- -- 97
2017-10-20 03:00:00 13.6 4 Sur 5 Sudoeste 0 -- -- 96
2017-10-20 02:00:00 13.5 2 Sur 14 Oeste 0 -- -- 95
2017-10-20 01:00:00 13.4 12 Sudoeste 15 Sudoeste 0.2 -- -- 95
2017-10-20 00:00:00 13.6 3 Sudoeste 10 Norte 0 -- -- 90
2017-10-19 23:00:00 13.9 9 Oeste 13 Oeste 0 -- -- 86
2017-10-19 22:00:00 13.8 5 Este 22 Norte 0 -- -- 86
2017-10-19 21:00:00 14.6 21 Oeste 29 Oeste 0 -- -- 80
2017-10-19 20:00:00 15.2 2 Oeste 12 Sudeste 0 -- -- 72
2017-10-19 19:00:00 16.3 9 Sudeste 13 Sudeste 0 -- -- 65
2017-10-19 18:00:00 17.3 4 Sudeste 10 Sudeste 0 -- -- 63
2017-10-19 17:00:00 17.8 3 Sur 10 Sudeste 0 -- -- 57
2017-10-19 16:00:00 18.2 7 Sudeste 10 Sudeste 0 -- -- 60
2017-10-19 15:00:00 17.4 6 Sudeste 12 Sudeste 0 -- -- 59
2017-10-19 14:00:00 17 8 Sudeste 12 Sudeste 0 -- -- 64
2017-10-19 13:00:00 15.7 0 Calma 7 Sudeste 0 -- -- 72
2017-10-19 12:00:00 14 5 Sudoeste 9 Oeste 0 -- -- 77
2017-10-19 11:00:00 10.7 5 Sur 15 Este 0 -- -- 89
2017-10-19 10:00:00 9.3 3 Sudeste 12 Sudeste 0 -- -- 91
2017-10-19 09:00:00 7.5 2 Sudoeste 11 Sudeste 0 -- -- 95
2017-10-19 08:00:00 7.6 6 Nordeste 9 Nordeste 0 -- -- 95
2017-10-19 07:00:00 7.7 4 Este 8 Este 0 -- -- 94
2017-10-19 06:00:00 8.7 0 Calma 6 Oeste 0 -- -- 90
2017-10-19 05:00:00 8.6 6 Oeste 8 Oeste 0 -- -- 93
2017-10-19 04:00:00 9.1 0 Calma 3 Sudoeste 0 -- -- 91
2017-10-19 03:00:00 9.3 0 Calma 6 Noroeste 0 -- -- 91
2017-10-19 02:00:00 9.5 5 Oeste 7 Oeste 0 -- -- 91
2017-10-19 01:00:00 9.7 4 Sudoeste 10 Sudoeste 0 -- -- 92
2017-10-19 00:00:00 9.8 5 Oeste 14 Noroeste 0 -- -- 92
2017-10-18 23:00:00 10 8 Noroeste 10 Noroeste 0 -- -- 92
2017-10-18 22:00:00 9.8 4 Oeste 10 Oeste 0 -- -- 98
2017-10-18 21:00:00 9.7 4 Oeste 9 Oeste 0 -- -- 99
2017-10-18 20:00:00 9.8 3 Sudoeste 9 Este 0.2 -- -- 98
2017-10-18 19:00:00 10.1 4 Sudeste 8 Sudeste 0.4 -- -- 96
2017-10-18 18:00:00 10.3 5 Norte 30 Noroeste 0.8 -- -- 95
2017-10-18 17:00:00 10.5 24 Noroeste 39 Oeste 0.2 -- -- 94
2017-10-18 16:00:00 11.9 15 Oeste 26 Oeste 0 -- -- 95
2017-10-18 15:00:00 12.3 18 Oeste 26 Oeste 0.2 -- -- 96
2017-10-18 14:00:00 12.2 7 Noroeste 11 Oeste 0 -- -- 98
2017-10-18 13:00:00 11.7 5 Oeste 11 Noroeste 0.8 -- -- 97
2017-10-18 12:00:00 12.1 9 Oeste 14 Noroeste 0.8 -- -- 88
2017-10-18 11:00:00 13.6 10 Sudoeste 23 Sur 0 -- -- 71
2017-10-18 10:00:00 14.5 10 Sur 31 Sur 0 -- -- 64
2017-10-18 09:00:00 14.4 6 Sudeste 40 Sudoeste 0 -- -- 65
2017-10-18 08:00:00 15.2 25 Oeste 52 Oeste 0 -- -- 57
2017-10-18 07:00:00 14.6 13 Sudoeste 54 Oeste 0 -- -- 63
2017-10-18 06:00:00 11.7 12 Sudoeste 29 Sur 0 -- -- 96
2017-10-18 05:00:00 11 8 Sur 19 Sudeste 0 -- -- 100
2017-10-18 04:00:00 10.9 6 Sur 18 Este 0 -- -- 100
2017-10-18 03:00:00 10.9 7 Sudeste 14 Nordeste 0 -- -- 100
2017-10-18 02:00:00 11.4 6 Sudeste 18 Este 0 -- -- 100
2017-10-18 01:00:00 11.5 8 Sudeste 18 Este 0 -- -- 99
2017-10-18 00:00:00 12.1 9 Sudeste 14 Sudeste 0 -- -- 98
2017-10-17 23:00:00 12.8 2 Sur 13 Este 0 -- -- 97
2017-10-17 22:00:00 12.7 5 Oeste 12 Oeste 0 -- -- 94
2017-10-17 21:00:00 12.5 6 Oeste 17 Sudoeste 0 -- -- 94
2017-10-17 20:00:00 12.5 10 Sudoeste 17 Sudoeste 0 -- -- 98
2017-10-17 19:00:00 13 13 Sudoeste 21 Sudoeste 0 -- -- 98
2017-10-17 18:00:00 13.6 14 Oeste 21 Oeste 1.6 -- -- 96
2017-10-17 17:00:00 15.7 9 Sudoeste 21 Oeste 0 -- -- 86
2017-10-17 16:00:00 17.1 13 Sudoeste 30 Sudeste 0 -- -- 81
2017-10-17 15:00:00 18.1 18 Sudeste 27 Sudeste 0 -- -- 73
2017-10-17 14:00:00 19.8 8 Sudeste 54 Oeste 0 -- -- 66
2017-10-17 13:00:00 19.5 13 Oeste 49 Sudoeste 0 -- -- 59
2017-10-17 12:00:00 19.9 5 Sudeste 12 Sudeste 0 -- -- 60
2017-10-17 11:00:00 18.5 11 Sudeste 19 Noroeste 0 -- -- 66
2017-10-17 10:00:00 18.1 10 Sudeste 24 Sudeste 0 -- -- 61
2017-10-17 09:00:00 17.3 8 Este 19 Sudeste 0 -- -- 63
2017-10-17 08:00:00 16.9 10 Sudeste 22 Sur 0 -- -- 65
2017-10-17 07:00:00 16.7 12 Sudeste 26 Sudoeste 0 -- -- 70
2017-10-17 06:00:00 13.4 4 Este 15 Sudoeste 0 -- -- 97
2017-10-17 05:00:00 12.9 6 Sur 12 Sudoeste 0 -- -- 100
2017-10-17 04:00:00 12.9 6 Sudeste 14 Sudeste 0 -- -- 100
2017-10-17 03:00:00 13.2 10 Sudeste 13 Sudeste 0 -- -- 99
2017-10-17 02:00:00 13.2 4 Noroeste 9 Este 0 -- -- 99
2017-10-17 01:00:00 13.4 3 Nordeste 8 Norte 0 -- -- 97
2017-10-17 00:00:00 13.6 3 Sudoeste 10 Sudoeste 0 -- -- 97
2017-10-16 23:00:00 13.9 3 Nordeste 15 Sudeste 0 -- -- 96
2017-10-16 22:00:00 14.1 10 Sudeste 28 Sudeste 0 -- -- 95
2017-10-16 21:00:00 14.3 14 Sudeste 30 Sudeste 0 -- -- 93
2017-10-16 20:00:00 14.5 12 Este 22 Este 0 -- -- 92
2017-10-16 19:00:00 14.8 4 Este 15 Sudoeste 0 -- -- 91
2017-10-16 18:00:00 15 11 Oeste 17 Oeste 0 -- -- 89
2017-10-16 17:00:00 15.3 10 Oeste 17 Oeste 0 -- -- 86
2017-10-16 16:00:00 15.6 11 Oeste 18 Oeste 0 -- -- 85
2017-10-16 15:00:00 15.9 12 Oeste 21 Sudoeste 0 -- -- 86
2017-10-16 14:00:00 16.1 16 Sudoeste 22 Oeste 0 -- -- 85
2017-10-16 13:00:00 16.3 16 Sudoeste 33 Oeste 0 -- -- 87
2017-10-16 12:00:00 16.6 25 Oeste 36 Oeste 0 -- -- 87
2017-10-16 11:00:00 17.7 21 Sudoeste 37 Oeste 0 -- -- 81
2017-10-16 10:00:00 21.3 21 Oeste 31 Oeste 0 -- -- 53
2017-10-16 09:00:00 24.4 24 Sur 57 Sudoeste 0 -- -- 32
2017-10-16 08:00:00 21.2 13 Sur 25 Este 0 -- -- 46
2017-10-16 07:00:00 24.5 18 Sur 49 Sur 0 -- -- 35
2017-10-16 06:00:00 25.4 28 Sudoeste 55 Sudoeste 0 -- -- 31
2017-10-16 05:00:00 23.6 19 Sudoeste 46 Oeste 0 -- -- 38
2017-10-16 04:00:00 23.2 11 Sudoeste 48 Oeste 0 -- -- 40
2017-10-16 03:00:00 22.7 15 Oeste 35 Norte 0 -- -- 41
2017-10-16 02:00:00 23.1 11 Sur 21 Sur 0 -- -- 40
2017-10-16 01:00:00 23.1 7 Sudeste 16 Sudoeste 0 -- -- 44
2017-10-16 00:00:00 23.3 6 Sudoeste 18 Este 0 -- -- 40
2017-10-15 23:00:00 24.1 8 Este 25 Nordeste 0 -- -- 39
2017-10-15 22:00:00 24.8 11 Este 51 Oeste 0 -- -- 39
2017-10-15 21:00:00 24 8 Sur 12 Sur 0 -- -- 42
2017-10-15 20:00:00 24.6 10 Sudeste 16 Sudoeste 0 -- -- 42
2017-10-15 19:00:00 25.5 15 Sudeste 20 Sudoeste 0 -- -- 44
2017-10-15 18:00:00 26.7 26 Sudoeste 49 Sur 0 -- -- 34
2017-10-15 17:00:00 28.7 22 Sudoeste 48 Sudoeste 0 -- -- 28
2017-10-15 16:00:00 29.6 22 Sudoeste 66 Sudoeste 0 -- -- 28
2017-10-15 15:00:00 28.8 29 Sudoeste 57 Sudoeste 0 -- -- 29
2017-10-15 14:00:00 29.3 16 Sudoeste 61 Sudoeste 0 -- -- 29
2017-10-15 13:00:00 27.4 9 Sudeste 46 Sudoeste 0 -- -- 37
2017-10-15 12:00:00 25.9 25 Sudoeste 48 Sur 0 -- -- 34
2017-10-15 11:00:00 23.1 11 Sudeste 22 Sudeste 0 -- -- 46
2017-10-15 10:00:00 22.7 10 Sudeste 22 Sudeste 0 -- -- 40
2017-10-15 09:00:00 22.4 15 Sudeste 30 Este 0 -- -- 46
2017-10-15 08:00:00 20.7 9 Este 19 Este 0 -- -- 47
2017-10-15 07:00:00 21.2 4 Nordeste 20 Sudeste 0 -- -- 45
2017-10-15 06:00:00 20.6 12 Sudeste 22 Sudeste 0 -- -- 46
2017-10-15 05:00:00 19.3 9 Este 16 Este 0 -- -- 53
2017-10-15 04:00:00 19.3 6 Este 17 Sudeste 0 -- -- 54
2017-10-15 03:00:00 18.7 2 Sudoeste 7 Sur 0 -- -- 54
2017-10-15 02:00:00 17.6 2 Sudeste 10 Este 0 -- -- 60
2017-10-15 01:00:00 17.2 8 Este 12 Sudeste 0 -- -- 63
2017-10-15 00:00:00 17.5 2 Este 6 Sudeste 0 -- -- 66
2017-10-14 23:00:00 17.4 3 Sur 12 Sudeste 0 -- -- 67
2017-10-14 22:00:00 18.2 3 Este 8 Sudeste 0 -- -- 65
2017-10-14 21:00:00 19.2 0 Calma 7 Este 0 -- -- 65
2017-10-14 20:00:00 21.4 2 Sudeste 7 Noroeste 0 -- -- 56
2017-10-14 19:00:00 23.4 6 Este 9 Sudeste 0 -- -- 54
2017-10-14 18:00:00 25.5 7 Sur 14 Sudeste 0 -- -- 47
2017-10-14 17:00:00 26 9 Sudeste 17 Sudeste 0 -- -- 48
2017-10-14 16:00:00 24.9 9 Sudeste 16 Sudeste 0 -- -- 59
2017-10-14 15:00:00 24.9 9 Sur 12 Sur 0 -- -- 61
2017-10-14 14:00:00 23 4 Sudeste 9 Sur 0 -- -- 64
2017-10-14 13:00:00 20.2 4 Sudeste 11 Sur 0 -- -- 77
2017-10-14 12:00:00 16.9 3 Sudeste 8 Oeste 0 -- -- 87
2017-10-14 11:00:00 13.4 2 Sudoeste 6 Oeste 0 -- -- 100
2017-10-14 10:00:00 12.3 2 Este 6 Este 0 -- -- 100
2017-10-14 09:00:00 11.9 0 Calma 8 Nordeste 0 -- -- 100
2017-10-14 08:00:00 12.2 0 Calma 9 Este 0 -- -- 100
2017-10-14 07:00:00 12.6 5 Este 11 Este 0 -- -- 100
2017-10-14 06:00:00 12.8 4 Sudeste 13 Sudeste 0 -- -- 100
2017-10-14 05:00:00 13.1 6 Sudeste 12 Sudeste 0 -- -- 100
2017-10-14 04:00:00 13.4 5 Sudeste 8 Este 0 -- -- 100
2017-10-14 03:00:00 13.8 5 Sudeste 9 Sudeste 0 -- -- 99
2017-10-14 02:00:00 14.3 4 Oeste 6 Oeste 0 -- -- 98
2017-10-14 01:00:00 14.6 0 Calma 5 Este 0 -- -- 98
2017-10-14 00:00:00 14.8 0 Calma 4 Nordeste 0 -- -- 98
2017-10-13 23:00:00 14.9 2 Noroeste 5 Oeste 0 -- -- 98
2017-10-13 22:00:00 14.8 4 Sudoeste 6 Oeste 0 -- -- 97
2017-10-13 21:00:00 14.9 3 Oeste 12 Oeste 0 -- -- 95
2017-10-13 20:00:00 15.8 8 Noroeste 12 Oeste 0 -- -- 92
2017-10-13 19:00:00 17.9 7 Oeste 13 Oeste 0 -- -- 85
2017-10-13 18:00:00 19.4 11 Oeste 20 Oeste 0 -- -- 79
2017-10-13 17:00:00 20 14 Oeste 21 Oeste 0 -- -- 78
2017-10-13 16:00:00 20.8 16 Oeste 22 Oeste 0 -- -- 73
2017-10-13 15:00:00 21.8 16 Oeste 22 Oeste 0 -- -- 67
2017-10-13 14:00:00 22 12 Oeste 17 Oeste 0 -- -- 61
2017-10-13 13:00:00 22.3 5 Oeste 8 Oeste 0 -- -- 56
2017-10-13 12:00:00 20.5 4 Sudoeste 5 Sudoeste 0 -- -- 54
2017-10-13 11:00:00 18.4 2 Sudoeste 4 Sudoeste 0 -- -- 57
2017-10-13 10:00:00 16.3 0 Calma 5 Este 0 -- -- 60
2017-10-13 09:00:00 15.6 0 Calma 4 Sudeste 0 -- -- 56
2017-10-13 08:00:00 15.9 2 Oeste 5 Oeste 0 -- -- 53
2017-10-13 07:00:00 16.5 3 Oeste 13 Oeste 0 -- -- 55
2017-10-13 06:00:00 16.3 4 Sudoeste 8 Sudoeste 0 -- -- 51
2017-10-13 05:00:00 15.7 4 Nordeste 10 Nordeste 0 -- -- 55
2017-10-13 04:00:00 15.1 3 Sudoeste 8 Nordeste 0 -- -- 64
2017-10-13 03:00:00 15 5 Nordeste 9 Nordeste 0 -- -- 70
2017-10-13 02:00:00 13.8 3 Sudeste 9 Este 0 -- -- 87
2017-10-13 01:00:00 13.7 5 Este 6 Nordeste 0 -- -- 91
2017-10-13 00:00:00 13.7 0 Calma 9 Este 0 -- -- 96
2017-10-12 23:00:00 13.8 5 Sudeste 10 Este 0 -- -- 97
2017-10-12 22:00:00 14.5 8 Sudeste 14 Sudeste 0 -- -- 95
2017-10-12 21:00:00 15.5 12 Sudeste 15 Sudeste 0 -- -- 91
2017-10-12 20:00:00 17.4 10 Sudeste 14 Sudeste 0 -- -- 82
2017-10-12 19:00:00 20.3 9 Sur 10 Sur 0 -- -- 68
2017-10-12 18:00:00 23.5 5 Sur 9 Sudoeste 0 -- -- 55
2017-10-12 17:00:00 23.7 3 Sudoeste 13 Sur 0 -- -- 50
2017-10-12 16:00:00 23.6 10 Sur 16 Sudeste 0 -- -- 57
2017-10-12 15:00:00 23.1 9 Sudeste 14 Sudeste 0 -- -- 58
2017-10-12 14:00:00 21.7 7 Sudeste 14 Sur 0 -- -- 64
2017-10-12 13:00:00 20.1 5 Sudeste 13 Sudeste 0 -- -- 70
2017-10-12 12:00:00 17.4 3 Sudeste 6 Sudoeste 0 -- -- 82
2017-10-12 11:00:00 14.2 0 Calma 6 Sudeste 0 -- -- 96
2017-10-12 10:00:00 11 3 Sudoeste 7 Sudeste 0 -- -- 100
2017-10-12 09:00:00 9.9 7 Este 9 Este 0 -- -- 100
2017-10-12 08:00:00 10.2 0 Calma 5 Este 0 -- -- 100
2017-10-12 07:00:00 10.4 3 Este 10 Sudeste 0 -- -- 100
2017-10-12 06:00:00 11.2 4 Este 6 Este 0 -- -- 100
2017-10-12 05:00:00 11.8 0 Calma 3 Oeste 0 -- -- 100
2017-10-12 04:00:00 12.3 0 Calma 3 Oeste 0 -- -- 99
2017-10-12 03:00:00 12.5 0 Calma 9 Este 0 -- -- 98
2017-10-12 02:00:00 13.4 5 Sudeste 9 Sudeste 0 -- -- 97
2017-10-12 01:00:00 14.3 6 Sudeste 9 Sudeste 0 -- -- 94
2017-10-12 00:00:00 14.5 0 Calma 4 Sudeste 0 -- -- 87
2017-10-11 23:00:00 14.8 4 Sudeste 6 Sudeste 0 -- -- 92
2017-10-11 22:00:00 15.2 6 Sudeste 7 Sudeste 0 -- -- 89
2017-10-11 21:00:00 15.4 5 Oeste 13 Oeste 0 -- -- 77
2017-10-11 20:00:00 15.6 9 Oeste 26 Oeste 0 -- -- 77
2017-10-11 19:00:00 16.4 16 Sudoeste 23 Sudoeste 0 -- -- 83
2017-10-11 18:00:00 18.9 15 Oeste 28 Oeste 0 -- -- 74
2017-10-11 17:00:00 20.7 14 Oeste 22 Oeste 0 -- -- 70
2017-10-11 16:00:00 21.1 14 Oeste 21 Oeste 0 -- -- 70
2017-10-11 15:00:00 21.8 9 Noroeste 17 Oeste 0 -- -- 66
2017-10-11 14:00:00 21.9 8 Sudeste 14 Oeste 0 -- -- 48
2017-10-11 13:00:00 20.5 0 Calma 8 Sudeste 0 -- -- 53
2017-10-11 12:00:00 19.5 8 Sudeste 13 Sur 0 -- -- 45
2017-10-11 11:00:00 17.5 3 Sur 8 Sudoeste 0 -- -- 50
2017-10-11 10:00:00 15.4 3 Sudoeste 7 Este 0 -- -- 41
2017-10-11 09:00:00 14.2 0 Calma 10 Nordeste 0 -- -- 42
2017-10-11 08:00:00 14 6 Nordeste 11 Nordeste 0 -- -- 49
2017-10-11 07:00:00 14.3 0 Calma 4 Sudoeste 0 -- -- 42
2017-10-11 06:00:00 13.9 0 Calma 9 Nordeste 0 -- -- 45
2017-10-11 05:00:00 13.8 2 Sudoeste 5 Este 0 -- -- 45
2017-10-11 04:00:00 14 2 Sudoeste 4 Sudoeste 0 -- -- 48
2017-10-11 03:00:00 13.8 2 Sudoeste 5 Sudoeste 0 -- -- 50
2017-10-11 02:00:00 13.9 2 Sudoeste 5 Este 0 -- -- 58
2017-10-11 01:00:00 14 0 Calma 7 Este 0 -- -- 57
2017-10-11 00:00:00 13.9 0 Calma 3 Sudoeste 0 -- -- 78
2017-10-10 23:00:00 13.8 0 Calma 8 Este 0 -- -- 75
2017-10-10 22:00:00 13.9 5 Nordeste 7 Nordeste 0 -- -- 89
2017-10-10 21:00:00 14.9 3 Nordeste 9 Sudeste 0 -- -- 94
2017-10-10 20:00:00 15.7 9 Sudeste 22 Sudeste 0 -- -- 90
2017-10-10 19:00:00 18.1 19 Sudeste 24 Sudeste 0 -- -- 81
2017-10-10 18:00:00 21.1 13 Sudeste 17 Sudeste 0 -- -- 68
2017-10-10 17:00:00 23.4 6 Sudeste 9 Sudeste 0 -- -- 55
2017-10-10 16:00:00 22.6 2 Noroeste 10 Sur 0 -- -- 58
2017-10-10 15:00:00 22.1 5 Sudeste 12 Sudeste 0 -- -- 59
2017-10-10 14:00:00 20.1 5 Sudeste 12 Sudeste 0 -- -- 65
2017-10-10 13:00:00 18.4 5 Sudeste 9 Sudeste 0 -- -- 76
2017-10-10 12:00:00 15 6 Sudoeste 8 Sudoeste 0 -- -- 84
2017-10-10 11:00:00 11.5 3 Sudoeste 5 Sudoeste 0 -- -- 100
2017-10-10 10:00:00 9.2 0 Calma 4 Sudoeste 0 -- -- 100
2017-10-10 09:00:00 8 2 Sudeste 6 Sudeste 0 -- -- 100
2017-10-10 08:00:00 8 0 Calma 6 Oeste 0.2 -- -- 100
2017-10-10 07:00:00 7.6 0 Calma -- -- 0 -- -- 100
2017-10-10 06:00:00 8.4 0 Calma 9 Sudoeste 0 -- -- 100
2017-10-10 05:00:00 9.5 0 Calma 7 Oeste 0 -- -- 100
2017-10-10 04:00:00 10.2 0 Calma 5 Nordeste 0 -- -- 100
2017-10-10 03:00:00 10.8 2 Este 4 Este 0 -- -- 100
2017-10-10 02:00:00 11.1 0 Calma 4 Este 0 -- -- 100
2017-10-10 01:00:00 11.4 3 Sudeste 8 Sudeste 0 -- -- 100
2017-10-10 00:00:00 11.6 0 Calma 4 Sudoeste 0 -- -- 100
2017-10-09 23:00:00 11.9 4 Sudeste 10 Sudeste 0 -- -- 99
2017-10-09 22:00:00 12.4 5 Sudeste 11 Sudeste 0 -- -- 98
2017-10-09 21:00:00 13.1 10 Sudeste 15 Sudeste 0 -- -- 95
2017-10-09 20:00:00 14.2 14 Sudeste 21 Sudeste 0 -- -- 90
2017-10-09 19:00:00 17.4 13 Sudeste 19 Sudeste 0 -- -- 76
2017-10-09 18:00:00 20.7 9 Sudoeste 17 Sudoeste 0 -- -- 68
2017-10-09 17:00:00 21.7 7 Oeste 13 Oeste 0 -- -- 64
2017-10-09 16:00:00 22.3 4 Noroeste 12 Oeste 0 -- -- 55
2017-10-09 15:00:00 21.5 3 Este 9 Sur 0 -- -- 56
2017-10-09 14:00:00 20.6 3 Sudeste 10 Sudeste 0 -- -- 54
2017-10-09 13:00:00 18.8 7 Sudeste 12 Sudeste 0 -- -- 63
2017-10-09 12:00:00 16.5 3 Sudeste 6 Sudeste 0 -- -- 71
2017-10-09 11:00:00 13.9 2 Sur 6 Sudeste 0.2 -- -- 83
2017-10-09 10:00:00 10.3 0 Calma 3 Sudoeste 0 -- -- 88
2017-10-09 09:00:00 8.6 0 Calma -- -- 0 -- -- 94
2017-10-09 08:00:00 8.4 0 Calma 4 Sudeste 0 -- -- 99
2017-10-09 07:00:00 8.8 0 Calma 4 Este 0 -- -- 99
2017-10-09 06:00:00 9 0 Calma 4 Sudoeste 0 -- -- 100
2017-10-09 05:00:00 9.4 2 Sudeste 3 Este 0 -- -- 100
2017-10-09 04:00:00 9.7 0 Calma 4 Noroeste 0 -- -- 100
2017-10-09 03:00:00 9.8 0 Calma -- -- 0 -- -- 100
2017-10-09 02:00:00 10.1 0 Calma 0 Calma 0 -- -- 100
2017-10-09 01:00:00 10.9 0 Calma 2 Sudoeste 0 -- -- 100
2017-10-09 00:00:00 10.9 2 Sudoeste 5 Sur 0 -- -- 99
2017-10-08 23:00:00 11.4 4 Sudeste 10 Sudeste 0 -- -- 97
2017-10-08 22:00:00 12.3 7 Sudeste 12 Sudeste 0 -- -- 96
2017-10-08 21:00:00 13.4 6 Sudeste 12 Sudeste 0 -- -- 92
2017-10-08 20:00:00 14.9 10 Sudeste 20 Sudeste 0 -- -- 84
2017-10-08 19:00:00 17.8 13 Sudeste 18 Sudeste 0 -- -- 71
2017-10-08 18:00:00 20.2 11 Sudeste 18 Sudeste 0 -- -- 59
2017-10-08 17:00:00 22.2 7 Sur 15 Sudeste 0 -- -- 50
2017-10-08 16:00:00 22.5 6 Sur 10 Sudeste 0 -- -- 45
2017-10-08 15:00:00 21.7 5 Sudeste 10 Sur 0 -- -- 48
2017-10-08 14:00:00 20.1 7 Sudeste 12 Este 0 -- -- 49
2017-10-08 13:00:00 19 3 Sur 9 Este 0 -- -- 59
2017-10-08 12:00:00 16 0 Calma 6 Sudoeste 0 -- -- 71
2017-10-08 11:00:00 13.3 2 Sudoeste 5 Sur 0 -- -- 85
2017-10-08 10:00:00 10.2 0 Calma 8 Sudoeste 0.2 -- -- 90
2017-10-08 09:00:00 8.3 0 Calma -- -- 0 -- -- 93
2017-10-08 08:00:00 8.7 0 Calma -- -- 0 -- -- 96
2017-10-08 07:00:00 8.8 0 Calma -- -- 0 -- -- 98
2017-10-08 06:00:00 8.9 4 Sudeste 6 Este 0 -- -- 99
2017-10-08 05:00:00 9.4 0 Calma 5 Sudoeste 0 -- -- 99
2017-10-08 04:00:00 9.5 2 Sudoeste 4 Sudoeste 0 -- -- 100
2017-10-08 03:00:00 10.1 3 Sudeste 4 Sudeste 0 -- -- 100
2017-10-08 02:00:00 10.5 0 Calma 5 Oeste 0 -- -- 100
2017-10-08 01:00:00 10.7 0 Calma 2 Sudoeste 0 -- -- 99
2017-10-08 00:00:00 11.1 0 Calma 3 Este 0 -- -- 98
2017-10-07 23:00:00 11.6 0 Calma 4 Sur 0 -- -- 97
2017-10-07 22:00:00 12.1 4 Sudeste 13 Sudeste 0 -- -- 96
2017-10-07 21:00:00 13 10 Sudeste 15 Sudeste 0 -- -- 92
2017-10-07 20:00:00 14.5 12 Sudeste 20 Sudeste 0 -- -- 86
2017-10-07 19:00:00 17.5 13 Sudeste 18 Sudeste 0 -- -- 73
2017-10-07 18:00:00 19.4 13 Sudeste 19 Sudeste 0 -- -- 66
2017-10-07 17:00:00 21.5 7 Sur 13 Sudeste 0 -- -- 55
2017-10-07 16:00:00 21.5 9 Sudeste 14 Sudeste 0 -- -- 51
2017-10-07 15:00:00 20.6 8 Sudeste 12 Sudeste 0 -- -- 52
2017-10-07 14:00:00 19.6 8 Sudeste 13 Sudeste 0 -- -- 61
2017-10-07 13:00:00 17.1 3 Sudeste 8 Sudeste 0 -- -- 70
2017-10-07 12:00:00 14.9 4 Este 10 Este 0 -- -- 82
2017-10-07 11:00:00 12.4 0 Calma 8 Este 0 -- -- 95
2017-10-07 10:00:00 9.6 2 Sur 5 Sudeste 0 -- -- 100
2017-10-07 09:00:00 8.1 3 Este 8 Sudeste 0 -- -- 100
2017-10-07 08:00:00 8.5 5 Sudeste 12 Sudeste 0 -- -- 100
2017-10-07 07:00:00 9.2 8 Este 10 Sudeste 0 -- -- 100
2017-10-07 06:00:00 9.6 7 Este 12 Sudeste 0 -- -- 100
2017-10-07 05:00:00 9.6 2 Sur 9 Sudeste 0 -- -- 100
2017-10-07 04:00:00 9.8 9 Este 15 Sudeste 0 -- -- 100
2017-10-07 03:00:00 10.9 8 Sudeste 11 Este 0 -- -- 100
2017-10-07 02:00:00 11.5 3 Sudeste 14 Sudeste 0 -- -- 99
2017-10-07 01:00:00 12.4 10 Sudeste 14 Sudeste 0 -- -- 99
2017-10-07 00:00:00 12.6 9 Sudeste 19 Sudeste 0 -- -- 99
2017-10-06 23:00:00 12.6 8 Este 25 Nordeste 0 -- -- 98
2017-10-06 22:00:00 13.3 13 Sudeste 27 Sudeste 0 -- -- 99
2017-10-06 21:00:00 13.7 12 Sudeste 30 Este 0 -- -- 98
2017-10-06 20:00:00 14.2 17 Este 32 Sudeste 0 -- -- 96
2017-10-06 19:00:00 15.5 16 Este 26 Este 0 -- -- 92
2017-10-06 18:00:00 16.6 9 Este 21 Este 0 -- -- 89
2017-10-06 17:00:00 16.6 9 Este 23 Este 0 -- -- 89
2017-10-06 16:00:00 17.4 4 Oeste 15 Oeste 0 -- -- 86
2017-10-06 15:00:00 19.3 5 Oeste 12 Nordeste 0 -- -- 76
2017-10-06 14:00:00 19 5 Sur 18 Nordeste 0 -- -- 77
2017-10-06 13:00:00 18.2 8 Nordeste 15 Este 0 -- -- 82
2017-10-06 12:00:00 18.4 5 Nordeste 12 Este 0 -- -- 82
2017-10-06 11:00:00 16.6 5 Sudeste 10 Este 0 -- -- 83
2017-10-06 10:00:00 14.1 5 Este 9 Este 0 -- -- 99
2017-10-06 09:00:00 13 4 Sudeste 5 Sudeste 0 -- -- 100
2017-10-06 08:00:00 12.9 5 Este 11 Sudeste 0 -- -- 100
2017-10-06 07:00:00 13.7 9 Sudeste 11 Sudeste 0 -- -- 100
2017-10-06 06:00:00 13.9 8 Sudeste 12 Sudeste 0 -- -- 100
2017-10-06 05:00:00 14.3 7 Sudeste 11 Sudeste 0 -- -- 100
2017-10-06 04:00:00 14.6 3 Sudeste 9 Sudeste 0 -- -- 100
2017-10-06 03:00:00 14.7 5 Sudeste 10 Sudeste 0 -- -- 100
2017-10-06 02:00:00 14.8 3 Sudoeste 13 Sudeste 0 -- -- 100
2017-10-06 01:00:00 14.9 9 Sudeste 14 Sudeste 0 -- -- 100
2017-10-06 00:00:00 15.1 8 Sudeste 11 Este 0 -- -- 100
2017-10-05 23:00:00 15.3 6 Este 15 Sudeste 0 -- -- 100
2017-10-05 22:00:00 15.6 8 Sudeste 12 Sudeste 0 -- -- 99
2017-10-05 21:00:00 16.1 9 Sudeste 14 Sudeste 0 -- -- 98
2017-10-05 20:00:00 16.7 8 Sudeste 15 Sudeste 0 -- -- 96
2017-10-05 19:00:00 17.5 12 Sudeste 18 Este 0 -- -- 92
2017-10-05 18:00:00 18.2 12 Sudeste 21 Este 0 -- -- 88
2017-10-05 17:00:00 19.8 10 Este 19 Este 0 -- -- 83
2017-10-05 16:00:00 20.4 7 Sudeste 13 Sudeste 0 -- -- 81
2017-10-05 15:00:00 20.2 4 Sudeste 10 Este 0 -- -- 84
2017-10-05 14:00:00 19.9 3 Nordeste 9 Sudeste 0 -- -- 88
2017-10-05 13:00:00 19.9 0 Calma 7 Nordeste 0 -- -- 84
2017-10-05 12:00:00 18.7 4 Nordeste 9 Este 0 -- -- 90
2017-10-05 11:00:00 16.8 4 Oeste 6 Sudoeste 0 -- -- 96
2017-10-05 10:00:00 16 2 Este 5 Este 0 -- -- 100
2017-10-05 09:00:00 15.3 0 Calma 6 Noroeste 0 -- -- 98
2017-10-05 08:00:00 15.3 0 Calma 4 Sudeste 0 -- -- 99
2017-10-05 07:00:00 15.4 0 Calma 5 Oeste 0 -- -- 100
2017-10-05 06:00:00 15.5 0 Calma 2 Oeste 0 -- -- 100
2017-10-05 05:00:00 15.7 0 Calma 2 Sur 0 -- -- 100
2017-10-05 04:00:00 15.9 0 Calma 8 Sudeste 0 -- -- 100
2017-10-05 03:00:00 16 5 Sudeste 7 Sudeste 0 -- -- 100
2017-10-05 02:00:00 16.1 2 Sudeste 7 Sudeste 0 -- -- 100
2017-10-05 01:00:00 16.3 3 Sudeste 6 Este 0 -- -- 99
2017-10-05 00:00:00 16.3 4 Este 13 Este 0 -- -- 100
2017-10-04 23:00:00 16.5 6 Sudeste 12 Sudeste 0 -- -- 100
2017-10-04 22:00:00 16.8 7 Sudeste 10 Sudeste 0 -- -- 99
2017-10-04 21:00:00 16.9 3 Sur 11 Sudoeste 0 -- -- 99
2017-10-04 20:00:00 17.2 8 Oeste 12 Oeste 0 -- -- 96
2017-10-04 19:00:00 18.6 5 Sudoeste 19 Oeste 0 -- -- 90
2017-10-04 18:00:00 21.6 6 Noroeste 17 Sudeste 0 -- -- 82
2017-10-04 17:00:00 22.1 5 Sur 17 Oeste 0 -- -- 77
2017-10-04 16:00:00 22.1 11 Oeste 23 Oeste 0 -- -- 76
2017-10-04 15:00:00 21.7 12 Oeste 21 Oeste 0 -- -- 79
2017-10-04 14:00:00 21.4 2 Nordeste 9 Sudoeste 0 -- -- 75
2017-10-04 13:00:00 19.4 3 Noroeste 12 Nordeste 0 -- -- 83
2017-10-04 12:00:00 18.2 3 Nordeste 10 Oeste 0 -- -- 88
2017-10-04 11:00:00 16 0 Calma 13 Oeste 0 -- -- 98
2017-10-04 10:00:00 14.9 6 Oeste 10 Noroeste 0 -- -- 100
2017-10-04 09:00:00 14.2 6 Sudoeste 11 Oeste 0 -- -- 100
2017-10-04 08:00:00 14.6 2 Sur 10 Este 0 -- -- 100
2017-10-04 07:00:00 14.5 0 Calma 4 Sudoeste 0 -- -- 100
2017-10-04 06:00:00 14.8 2 Sur 6 Sudeste 0 -- -- 100
2017-10-04 05:00:00 14.9 3 Sudeste 11 Sudeste 0 -- -- 100
2017-10-04 04:00:00 15.3 9 Sudeste 18 Sudeste 0 -- -- 100
2017-10-04 03:00:00 15.8 11 Sudeste 21 Este 0 -- -- 100
2017-10-04 02:00:00 16.1 6 Sudeste 14 Sudeste 0 -- -- 100
2017-10-04 01:00:00 16.2 9 Sudeste 23 Este 0 -- -- 100
2017-10-04 00:00:00 16.5 10 Sudeste 17 Sudeste 0 -- -- 100
2017-10-03 23:00:00 16.5 0 Calma 5 Oeste 0 -- -- 100
2017-10-03 22:00:00 16.6 3 Sudoeste 9 Sudeste 0 -- -- 100
2017-10-03 21:00:00 16.5 7 Sudeste 16 Este 0 -- -- 99
2017-10-03 20:00:00 16.7 9 Sudeste 23 Sudeste 0 -- -- 96
2017-10-03 19:00:00 17.6 10 Sudeste 29 Este 0 -- -- 93
2017-10-03 18:00:00 18.7 12 Este 25 Sudeste 0 -- -- 89
2017-10-03 17:00:00 19.9 9 Sudeste 22 Este 0 -- -- 87
2017-10-03 16:00:00 20.7 5 Sur 15 Oeste 0.2 -- -- 86
2017-10-03 15:00:00 20 10 Oeste 20 Oeste 0 -- -- 88
2017-10-03 14:00:00 21 13 Sudoeste 18 Oeste 0 -- -- 88
2017-10-03 13:00:00 20 5 Sudoeste 10 Sudoeste 0 -- -- 96
2017-10-03 12:00:00 18.4 0 Calma 5 Noroeste 0 -- -- 100
2017-10-03 11:00:00 17.7 0 Calma 5 Sudoeste 0 -- -- 100
2017-10-03 10:00:00 17 0 Calma 5 Oeste 0 -- -- 100
2017-10-03 09:00:00 16.6 3 Oeste 6 Oeste 0 -- -- 100
2017-10-03 08:00:00 16.5 3 Norte 5 Oeste 0 -- -- 100
2017-10-03 07:00:00 16.4 4 Nordeste 8 Sur 0 -- -- 100
2017-10-03 06:00:00 16.5 3 Sudeste 9 Oeste 0 -- -- 100
2017-10-03 05:00:00 16.6 9 Oeste 13 Oeste 0 -- -- 100
2017-10-03 04:00:00 16.4 8 Sudoeste 12 Sudoeste 0 -- -- 100
2017-10-03 03:00:00 16.2 9 Oeste 12 Oeste 0 -- -- 100
2017-10-03 02:00:00 16.4 5 Oeste 10 Oeste 0 -- -- 100
2017-10-03 01:00:00 17 4 Sudoeste 5 Sudoeste 0 -- -- 100
2017-10-03 00:00:00 17.5 0 Calma 6 Sudeste 0 -- -- 100
2017-10-02 23:00:00 18 2 Este 4 Sudeste 0 -- -- 100
2017-10-02 22:00:00 18.1 6 Sudeste 10 Sudeste 0 -- -- 100
2017-10-02 21:00:00 18.8 6 Sudeste 13 Sudeste 0 -- -- 98
2017-10-02 20:00:00 19.2 9 Sudeste 14 Este 0 -- -- 96
2017-10-02 19:00:00 19.8 7 Este 18 Este 0 -- -- 94
2017-10-02 18:00:00 20.9 8 Sudeste 15 Este 0 -- -- 91
2017-10-02 17:00:00 21.4 4 Sur 13 Sudeste 0 -- -- 90
2017-10-02 16:00:00 22.1 8 Sudeste 14 Sudeste 0 -- -- 89
2017-10-02 15:00:00 22 3 Sur 10 Sur 0 -- -- 90
2017-10-02 14:00:00 21.8 3 Este 10 Noroeste 0 -- -- 97
2017-10-02 13:00:00 19.8 6 Sudoeste 10 Sudoeste 0 -- -- 100
2017-10-02 12:00:00 18.4 0 Calma 8 Noroeste 0.2 -- -- 100
2017-10-02 11:00:00 17.4 4 Oeste 8 Noroeste 0.4 -- -- 100
2017-10-02 10:00:00 16.9 4 Oeste 10 Oeste 0 -- -- 100
2017-10-02 09:00:00 16.5 8 Oeste 10 Oeste 0.2 -- -- 100
2017-10-02 08:00:00 16.6 3 Oeste 7 Sudoeste 1 -- -- 100
2017-10-02 07:00:00 16.7 0 Calma 6 Sudoeste 0.4 -- -- 100
2017-10-02 06:00:00 16.6 0 Calma 8 Sudoeste 0.2 -- -- 100
2017-10-02 05:00:00 16.5 5 Noroeste 10 Oeste 0 -- -- 100
2017-10-02 04:00:00 16.3 8 Oeste 11 Noroeste 0 -- -- 100
2017-10-02 03:00:00 16.3 6 Sudoeste 15 Oeste 0 -- -- 100
2017-10-02 02:00:00 16.3 6 Oeste 9 Oeste 0 -- -- 100
2017-10-02 01:00:00 16.3 4 Noroeste 11 Noroeste 0 -- -- 100
2017-10-02 00:00:00 16.4 2 Sur 16 Noroeste 0 -- -- 100
2017-10-01 23:00:00 16.5 5 Sudoeste 17 Oeste 0.2 -- -- 99
2017-10-01 22:00:00 17.1 2 Oeste 8 Sudoeste 0 -- -- 97
2017-10-01 21:00:00 17.5 0 Calma 17 Noroeste 0 -- -- 94
2017-10-01 20:00:00 18.1 12 Noroeste 17 Norte 0 -- -- 91
2017-10-01 19:00:00 18.6 2 Noroeste 9 Oeste 0 -- -- 91
2017-10-01 18:00:00 19 9 Oeste 15 Oeste 0 -- -- 89
2017-10-01 17:00:00 20.5 6 Noroeste 13 Oeste 0 -- -- 81
2017-10-01 16:00:00 20.5 10 Oeste 28 Noroeste 0 -- -- 77
2017-10-01 15:00:00 20.7 12 Norte 24 Oeste 0 -- -- 75
2017-10-01 14:00:00 19.9 17 Oeste 26 Sudoeste 0 -- -- 77
2017-10-01 13:00:00 19.1 13 Noroeste 24 Noroeste 0 -- -- 79
2017-10-01 12:00:00 18.4 8 Oeste 26 Noroeste 0 -- -- 81
2017-10-01 11:00:00 17.1 16 Oeste 25 Oeste 0 -- -- 83
2017-10-01 10:00:00 16.7 15 Noroeste 24 Noroeste 0 -- -- 81
2017-10-01 09:00:00 15.4 9 Noroeste 29 Oeste 0 -- -- 88
2017-10-01 08:00:00 15 10 Oeste 18 Oeste 0 -- -- 88
2017-10-01 07:00:00 14.9 6 Oeste 14 Noroeste 0 -- -- 88
2017-10-01 06:00:00 14.7 8 Noroeste 18 Noroeste 0 -- -- 89
2017-10-01 05:00:00 14.8 5 Oeste 22 Oeste 0 -- -- 87
2017-10-01 04:00:00 14.6 14 Oeste 21 Oeste 0 -- -- 88
2017-10-01 03:00:00 14 5 Oeste 11 Sudoeste 0 -- -- 92
2017-10-01 02:00:00 13.2 3 Oeste 8 Sudoeste 0 -- -- 98
2017-10-01 01:00:00 12.8 3 Noroeste 9 Sudoeste 0 -- -- 100
2017-10-01 00:00:00 12.5 5 Oeste 7 Oeste 0 -- -- 100
2017-09-30 23:00:00 12.8 0 Calma 4 Nordeste 0 -- -- 100
2017-09-30 22:00:00 13 0 Calma 4 Este 0 -- -- 100
2017-09-30 21:00:00 13.2 3 Sudeste 4 Sudeste 0 -- -- 98
2017-09-30 20:00:00 13.6 4 Sudoeste 7 Oeste 0.2 -- -- 99
2017-09-30 19:00:00 13.6 6 Oeste 18 Oeste 0 -- -- 99
2017-09-30 18:00:00 14 14 Oeste 21 Oeste 0 -- -- 98
2017-09-30 17:00:00 15.2 15 Oeste 26 Oeste 0 -- -- 96
2017-09-30 16:00:00 15.2 16 Oeste 26 Oeste 0 -- -- 97
2017-09-30 15:00:00 15.7 16 Oeste 22 Oeste 0 -- -- 93
2017-09-30 14:00:00 17.1 11 Noroeste 19 Oeste 0 -- -- 95
2017-09-30 13:00:00 15.1 13 Oeste 17 Oeste 0 -- -- 100
2017-09-30 12:00:00 14.6 9 Oeste 13 Oeste 0 -- -- 100
2017-09-30 11:00:00 13.7 7 Oeste 12 Sudoeste 0.2 -- -- 100
2017-09-30 10:00:00 13.1 8 Oeste 14 Oeste 0.2 -- -- 100
2017-09-30 09:00:00 13 11 Oeste 20 Oeste 0.2 -- -- 100
2017-09-30 08:00:00 13 8 Oeste 25 Oeste 0 -- -- 100
2017-09-30 07:00:00 13.2 12 Oeste 22 Oeste 0.4 -- -- 100
2017-09-30 06:00:00 13.6 12 Oeste 20 Sudoeste 0 -- -- 100
2017-09-30 05:00:00 13.9 13 Oeste 20 Oeste 0 -- -- 100
2017-09-30 04:00:00 14.2 12 Oeste 18 Oeste 0.2 -- -- 100
2017-09-30 03:00:00 14.4 12 Oeste 19 Oeste 0 -- -- 100
2017-09-30 02:00:00 14.6 9 Oeste 16 Oeste 0 -- -- 100
2017-09-30 01:00:00 14.8 12 Oeste 22 Oeste 0 -- -- 100
2017-09-30 00:00:00 15.1 14 Oeste 23 Oeste 0.4 -- -- 100
2017-09-29 23:00:00 15.6 9 Oeste 14 Oeste 1.4 -- -- 100
2017-09-29 22:00:00 15.8 2 Sudoeste 6 Oeste 0.4 -- -- 100
2017-09-29 21:00:00 15.9 6 Oeste 14 Oeste 0 -- -- 98
2017-09-29 20:00:00 16.4 7 Oeste 17 Oeste 0 -- -- 94
2017-09-29 19:00:00 16.5 14 Oeste 26 Sudoeste 0 -- -- 92
2017-09-29 18:00:00 17.1 15 Oeste 27 Oeste 0 -- -- 89
2017-09-29 17:00:00 19.8 18 Oeste 26 Oeste 0 -- -- 81
2017-09-29 16:00:00 22.7 5 Noroeste 23 Oeste 0 -- -- 75
2017-09-29 15:00:00 22 16 Oeste 28 Oeste 0 -- -- 77
2017-09-29 14:00:00 21.9 13 Oeste 25 Oeste 0 -- -- 72
2017-09-29 13:00:00 22 13 Oeste 21 Oeste 0 -- -- 72
2017-09-29 12:00:00 21.1 10 Oeste 16 Oeste 0 -- -- 74
2017-09-29 11:00:00 18.7 6 Oeste 10 Sudoeste 0 -- -- 74
2017-09-29 10:00:00 16.1 3 Oeste 6 Oeste 0 -- -- 83
2017-09-29 09:00:00 15 0 Calma 4 Noroeste 0 -- -- 87
2017-09-29 08:00:00 14.5 0 Calma -- -- 0 -- -- 87
2017-09-29 07:00:00 14.4 0 Calma -- -- 0 -- -- 87
2017-09-29 06:00:00 14.3 2 Sudoeste 9 Sudeste 0 -- -- 87
2017-09-29 05:00:00 14.4 5 Oeste 8 Oeste 0 -- -- 88
2017-09-29 04:00:00 14.4 0 Calma 3 Nordeste 0 -- -- 87
2017-09-29 03:00:00 14.4 4 Sudoeste 6 Sudoeste 0 -- -- 88
2017-09-29 02:00:00 15 0 Calma 8 Noroeste 0 -- -- 85
2017-09-29 01:00:00 15.4 8 Noroeste 10 Oeste 0 -- -- 83
2017-09-29 00:00:00 16 0 Calma 6 Oeste 0 -- -- 85
2017-09-28 23:00:00 16.3 3 Oeste 8 Oeste 0 -- -- 83
2017-09-28 22:00:00 16.8 3 Sudoeste 8 Sudoeste 0 -- -- 77
2017-09-28 21:00:00 17.4 6 Sudoeste 13 Sudoeste 0 -- -- 72
2017-09-28 20:00:00 19.4 11 Sudoeste 15 Sudoeste 0 -- -- 73
2017-09-28 19:00:00 22.3 11 Sudoeste 15 Sudoeste 0 -- -- 72
2017-09-28 18:00:00 25.9 4 Oeste 14 Este 0 -- -- 62
2017-09-28 17:00:00 25.6 8 Noroeste 14 Sudoeste 0 -- -- 59
2017-09-28 16:00:00 26.1 7 Oeste 14 Oeste 0 -- -- 57
2017-09-28 15:00:00 25.5 9 Oeste 15 Oeste 0 -- -- 59
2017-09-28 14:00:00 24.7 6 Oeste 11 Sudoeste 0 -- -- 57
2017-09-28 13:00:00 22.8 4 Oeste 11 Oeste 0 -- -- 62
2017-09-28 12:00:00 20.4 8 Oeste 14 Noroeste 0 -- -- 73
2017-09-28 11:00:00 17.8 7 Oeste 10 Oeste 0 -- -- 75
2017-09-28 10:00:00 15.5 3 Sudeste 9 Sur 0 -- -- 87
2017-09-28 09:00:00 13.6 0 Calma 5 Este 0 -- -- 88
2017-09-28 08:00:00 13.2 0 Calma 6 Este 0 -- -- 91
2017-09-28 07:00:00 13.4 2 Este 8 Sudoeste 0 -- -- 88
2017-09-28 06:00:00 13.3 0 Calma 7 Este 0 -- -- 92
2017-09-28 05:00:00 13.9 5 Sudeste 8 Sudeste 0 -- -- 89
2017-09-28 04:00:00 14 4 Oeste 5 Oeste 0 -- -- 90
2017-09-28 03:00:00 14.4 2 Este 6 Sudeste 0 -- -- 88
2017-09-28 02:00:00 14.7 3 Nordeste 8 Nordeste 0 -- -- 86
2017-09-28 01:00:00 14.9 4 Nordeste 10 Sudoeste 0 -- -- 86
2017-09-28 00:00:00 15 11 Sudeste 18 Sudeste 0 -- -- 88
2017-09-27 23:00:00 15.5 8 Este 13 Sudeste 0 -- -- 85
2017-09-27 22:00:00 16.6 4 Sudoeste 12 Sudeste 0 -- -- 79
2017-09-27 21:00:00 17.6 9 Sudeste 12 Sudeste 0 -- -- 75
2017-09-27 20:00:00 19.2 6 Oeste 14 Oeste 0 -- -- 65
2017-09-27 19:00:00 21.4 13 Oeste 24 Oeste 0 -- -- 60
2017-09-27 18:00:00 22.6 17 Oeste 27 Oeste 0 -- -- 56
2017-09-27 17:00:00 23.5 15 Oeste 24 Oeste 0 -- -- 62
2017-09-27 16:00:00 25.4 4 Sur 15 Oeste 0 -- -- 60
2017-09-27 15:00:00 24.9 8 Oeste 17 Oeste 0 -- -- 55
2017-09-27 14:00:00 23.1 7 Oeste 17 Noroeste 0 -- -- 57
2017-09-27 13:00:00 21.5 12 Noroeste 21 Noroeste 0 -- -- 63
2017-09-27 12:00:00 20.8 6 Oeste 9 Oeste 0 -- -- 67
2017-09-27 11:00:00 18 2 Sudoeste 4 Sudoeste 0 -- -- 77
2017-09-27 10:00:00 14.7 0 Calma 4 Nordeste 0 -- -- 85
2017-09-27 09:00:00 12.9 3 Oeste 8 Noroeste 0 -- -- 92
2017-09-27 08:00:00 13.1 8 Oeste 13 Oeste 0 -- -- 89
2017-09-27 07:00:00 12.1 7 Oeste 9 Oeste 0 -- -- 96
2017-09-27 06:00:00 12.3 0 Calma 3 Sudoeste 0 -- -- 99
2017-09-27 05:00:00 12.2 2 Sudoeste 7 Oeste 0 -- -- 100
2017-09-27 04:00:00 12.2 4 Este 6 Este 0 -- -- 100
2017-09-27 03:00:00 12.7 3 Este 6 Sudeste 0 -- -- 100
2017-09-27 02:00:00 13 3 Sudoeste 8 Este 0 -- -- 100
2017-09-27 01:00:00 13.1 6 Este 8 Este 0 -- -- 100
2017-09-27 00:00:00 13.5 3 Sudoeste 8 Este 0 -- -- 100
2017-09-26 23:00:00 14.1 2 Sur 7 Sudeste 0 -- -- 99
2017-09-26 22:00:00 14.5 6 Sudeste 12 Sudeste 0 -- -- 98
2017-09-26 21:00:00 15.4 10 Sudeste 15 Sudeste 0 -- -- 96
2017-09-26 20:00:00 16.5 13 Sudeste 17 Sudeste 0 -- -- 91
2017-09-26 19:00:00 19.2 14 Sudeste 20 Sudeste 0 -- -- 81
2017-09-26 18:00:00 21 13 Sudeste 17 Sudeste 0 -- -- 75
2017-09-26 17:00:00 22.2 9 Sur 15 Sudeste 0 -- -- 68
2017-09-26 16:00:00 22.6 8 Sur 16 Sudeste 0 -- -- 67
2017-09-26 15:00:00 21.8 9 Sudeste 17 Sudeste 0 -- -- 68
2017-09-26 14:00:00 20.8 6 Sudeste 18 Sudeste 0 -- -- 67
2017-09-26 13:00:00 19.2 6 Sudeste 13 Este 0 -- -- 71
2017-09-26 12:00:00 17.4 4 Sudeste 8 Este 0 -- -- 81
2017-09-26 11:00:00 14.5 3 Oeste 8 Sudeste 0 -- -- 96
2017-09-26 10:00:00 11.9 2 Sudoeste 5 Sur 0 -- -- 100
2017-09-26 09:00:00 10.2 2 Sudeste 9 Sudeste 0 -- -- 100
2017-09-26 08:00:00 10.3 5 Sudeste 7 Sudeste 0 -- -- 100
2017-09-26 07:00:00 10.8 0 Calma -- -- 0 -- -- 100
2017-09-26 06:00:00 10.8 0 Calma 3 Sudeste 0 -- -- 100
2017-09-26 05:00:00 11 2 Sudeste 5 Sudeste 0 -- -- 100
2017-09-26 04:00:00 11.5 2 Sudeste 5 Sudeste 0 -- -- 100
2017-09-26 03:00:00 11.9 4 Sudeste 6 Sudeste 0 -- -- 100
2017-09-26 02:00:00 12.3 0 Calma 8 Este 0 -- -- 99
2017-09-26 01:00:00 12.8 4 Sudeste 6 Sudeste 0 -- -- 96
2017-09-26 00:00:00 13.2 3 Noroeste 9 Oeste 0 -- -- 96
2017-09-25 23:00:00 14 4 Oeste 8 Sudoeste 0 -- -- 93
2017-09-25 22:00:00 14.4 5 Sudoeste 14 Noroeste 0 -- -- 92
2017-09-25 21:00:00 14.7 11 Oeste 16 Oeste 0 -- -- 91
2017-09-25 20:00:00 15.2 13 Noroeste 21 Noroeste 0 -- -- 87
2017-09-25 19:00:00 15.8 13 Noroeste 30 Noroeste 0 -- -- 86
2017-09-25 18:00:00 16.7 17 Noroeste 33 Norte 0 -- -- 84
2017-09-25 17:00:00 17.2 17 Noroeste 33 Noroeste 0 -- -- 82
2017-09-25 16:00:00 17.7 21 Noroeste 31 Noroeste 0 -- -- 80
2017-09-25 15:00:00 18.6 16 Norte 32 Norte 0 -- -- 78
2017-09-25 14:00:00 17.8 19 Noroeste 32 Noroeste 0 -- -- 71
2017-09-25 13:00:00 17.3 18 Oeste 32 Oeste 0 -- -- 76
2017-09-25 12:00:00 17.1 18 Noroeste 26 Noroeste 0 -- -- 79
2017-09-25 11:00:00 16.7 5 Norte 10 Norte 0 -- -- 80
2017-09-25 10:00:00 15.1 4 Nordeste 9 Norte 0 -- -- 86
2017-09-25 09:00:00 13.4 5 Norte 14 Oeste 0 -- -- 90
2017-09-25 08:00:00 13.3 6 Noroeste 15 Oeste 0 -- -- 91
2017-09-25 07:00:00 13.2 12 Noroeste 17 Norte 0 -- -- 89
2017-09-25 06:00:00 13.6 7 Oeste 9 Oeste 0 -- -- 86
2017-09-25 05:00:00 13.5 7 Noroeste 10 Noroeste 0 -- -- 87
2017-09-25 04:00:00 13.9 7 Oeste 14 Noroeste 0 -- -- 86
2017-09-25 03:00:00 13.7 8 Noroeste 17 Noroeste 0 -- -- 89
2017-09-25 02:00:00 13.7 5 Noroeste 18 Noroeste 0 -- -- 89
2017-09-25 01:00:00 13.6 3 Oeste 11 Sur 0.2 -- -- 92
2017-09-25 00:00:00 13.7 9 Sudeste 34 Sudeste 1 -- -- 91
2017-09-24 23:00:00 15 14 Noroeste 32 Noroeste 0 -- -- 86
2017-09-24 22:00:00 15.7 22 Noroeste 32 Oeste 0 -- -- 81
2017-09-24 21:00:00 16.5 24 Oeste 31 Oeste 0 -- -- 78
2017-09-24 20:00:00 18 9 Oeste 14 Oeste 0 -- -- 69
2017-09-24 19:00:00 20 6 Oeste 28 Oeste 0 -- -- 53
2017-09-24 18:00:00 20.9 22 Oeste 31 Oeste 0 -- -- 62
2017-09-24 17:00:00 22.6 20 Oeste 27 Oeste 0 -- -- 67
2017-09-24 16:00:00 24.8 12 Oeste 17 Oeste 0 -- -- 57
2017-09-24 15:00:00 24.9 0 Calma 10 Noroeste 0 -- -- 57
2017-09-24 14:00:00 24.1 3 Noroeste 11 Sur 0 -- -- 61
2017-09-24 13:00:00 22.8 3 Sur 7 Nordeste 0 -- -- 71
2017-09-24 12:00:00 20 5 Sudoeste 7 Sudoeste 0 -- -- 70
2017-09-24 11:00:00 16.8 3 Sudoeste 9 Sudoeste 0 -- -- 87
2017-09-24 10:00:00 14.2 2 Este 5 Sudeste 0 -- -- 99
2017-09-24 09:00:00 12.4 2 Este 5 Este 0 -- -- 100
2017-09-24 08:00:00 11.8 0 Calma 8 Sudeste 0 -- -- 100
2017-09-24 07:00:00 12 5 Este 7 Este 0 -- -- 100
2017-09-24 06:00:00 12.1 4 Sudeste 6 Sudeste 0 -- -- 100
2017-09-24 05:00:00 12.1 4 Sudoeste 14 Sudeste 0 -- -- 99
2017-09-24 04:00:00 12.6 8 Sudeste 11 Sudeste 0 -- -- 99
2017-09-24 03:00:00 12.9 6 Sudeste 9 Este 0 -- -- 98
2017-09-24 02:00:00 13.7 3 Este 5 Sudeste 0 -- -- 96
2017-09-24 01:00:00 13.8 3 Sudoeste 12 Este 0 -- -- 95
2017-09-24 00:00:00 14.5 2 Nordeste 11 Sudeste 0 -- -- 92
2017-09-23 23:00:00 14.6 7 Sudeste 13 Sudoeste 0 -- -- 92
2017-09-23 22:00:00 14.9 12 Sudoeste 15 Sudoeste 0 -- -- 91
2017-09-23 21:00:00 15.7 15 Oeste 33 Oeste 0 -- -- 85
2017-09-23 20:00:00 17.3 24 Oeste 33 Oeste 0 -- -- 77
2017-09-23 19:00:00 19.7 15 Oeste 22 Oeste 0 -- -- 72
2017-09-23 18:00:00 21.5 14 Sudoeste 30 Oeste 0 -- -- 65
2017-09-23 17:00:00 21.8 25 Oeste 41 Oeste 0 -- -- 63
2017-09-23 16:00:00 24.1 24 Oeste 33 Oeste 0 -- -- 58
2017-09-23 15:00:00 27.2 8 Sur 12 Sur 0 -- -- 47
2017-09-23 14:00:00 26.2 2 Este 10 Sudoeste 0 -- -- 59
2017-09-23 13:00:00 23.9 5 Sudeste 9 Sur 0 -- -- 73
2017-09-23 12:00:00 21 2 Oeste 6 Sudoeste 0 -- -- 74
2017-09-23 11:00:00 17.6 0 Calma 6 Nordeste 0 -- -- 80
2017-09-23 10:00:00 14.7 0 Calma 11 Sudeste 0 -- -- 86
2017-09-23 09:00:00 12.3 3 Sudeste 15 Sudeste 0 -- -- 98
2017-09-23 08:00:00 11.7 8 Sudeste 21 Sur 0 -- -- 100
2017-09-23 07:00:00 11.2 5 Este 15 Sudeste 0 -- -- 100
2017-09-23 06:00:00 11.4 2 Nordeste 4 Sudoeste 0 -- -- 100
2017-09-23 05:00:00 11.5 0 Calma 6 Oeste 0 -- -- 100
2017-09-23 04:00:00 12 3 Oeste 5 Sudoeste 0 -- -- 100
2017-09-23 03:00:00 12.5 3 Noroeste 5 Oeste 0 -- -- 100
2017-09-23 02:00:00 12.6 2 Sudoeste 12 Este 0 -- -- 100
2017-09-23 01:00:00 13 9 Sudeste 11 Sudeste 0 -- -- 100
2017-09-23 00:00:00 13.6 2 Este 5 Sudeste 0 -- -- 100